Detall de PIREP

Printer-friendly versionPDF version

[2008/08/16 21:30:00]
Flight IATA:CT1005
Pilot Number:026
Company ICAO:CAT
Aircraft Type:B75F/E
PAX:0
Departing Airport: LIEA
Destination Airport: EVRA
Alternate Airport:EYSA
Online: VATSIM
Route:POULP UL42 AJO UM858 GEN UM985 SUMIR UM726 KOGOL UN871 DOKEL UP861 OKX UP733 KMI UM994 GOMED R801 RUSNE UM994 GUNTA
Flight Level:FL320
No Slew and time accel
No pause
Crash detect
Detect pilot in Cockpit between each 30 and 45 minutes
21:30 Zero fuel Weight: 221471 Lbs, Fuel Weight: 34528 Lbs
21:30 VATSIM:LIEA 162050Z 22006KT 9999 FEW020 22/17 Q1013
21:30 VATSIM:EVRA 162050Z 05005KT 020V080 9999 TS FEW041CB SCT081 20/18 Q1006 NOSIG
21:30 VOICE CATALONIAN / EU TOUR
21:34 Parking Brakes off
21:45 Take-off
21:45 Take off Weight: 254224 Lbs
21:45 Wind: 210º @ 005 Knots Heading: 203º
21:45 POS N40º 37´ 31´´ E008º 17´ 12´´
21:45 Flaps:3 at 189 Knots
21:45 Gear Up: 191 Knots
21:
45 Flaps:2 at 159 Knots
21:46 Flaps:1 at 204 Knots
21:47 Flaps:0 at 207 Knots
22:00 Wind:258º@009 Knots Heading: 017º Ground Speed: 322 Knots Altitude 26945 ft
22:09 TOC
22:09 Fuel Weight: 26275 Lb
22:15 Wind:237º@016 Knots Heading: 003º Ground Speed: 458 Knots Altitude 31896 ft
22:30 Wind:343º@006 Knots Heading: 030º Ground Speed: 482 Knots Altitude 31843 ft
22:45 Wind:132º@008 Knots Heading: 351º Ground Speed: 496 Knots Altitude 31922 ft
23:00 Wind:148º@011 Knots Heading: 037º Ground Speed: 478 Knots Altitude 31971 ft
23:15 Wind:254º@025 Knots Heading: 023º Ground Speed: 491 Knots Altitude 31925 ft
23:30 Wind:295º@035 Knots Heading: 036º Ground Speed: 448 Knots Altitude 31817 ft
23:45 Wind:338º@011 Knots Heading: 034º Ground Speed: 465 Knots Altitude 31804 ft
00:00 Wind:341º@022 Knots Heading: 048º Ground Speed: 470 Knots Altitude 31696 ft
00:05 TOD
00:05 Fue
l Weight: 7821 Lb
00:15 Wind:060º@026 Knots Heading: 049º Ground Speed: 393 Knots Altitude 15492 ft
00:29 Flaps:1 at 190 Knots
00:29 Gear Down: 190 Knots
00:30 Wind:000º@009 Knots Heading: 002º Ground Speed: 189 Knots Altitude 2500 ft
00:30 Flaps:3 at 192 Knots
00:30 Flaps:4 at 210 Knots
00:31 Flaps:5 at 205 Knots
00:31 Flaps:6 at 204 Knots
00:31 Flaps:5 at 184 Knots
00:32 Gear Up: 189 Knots
00:32 Flaps:4 at 190 Knots
00:32 Flaps:3 at 184 Knots
00:35 Flaps:2 at 176 Knots
00:35 Flaps:1 at 173 Knots
00:35 Flaps:0 at 172 Knots
00:41 Flaps:1 at 193 Knots
00:42 Flaps:2 at 200 Knots
00:42 Gear Down: 191 Knots
00:45 Wind:000º@014 Knots Heading: 003º Ground Speed: 178 Knots Altitude 2555 ft
00:45 Flaps:3 at 172 Knots
00:46 Flaps:4 at 176 Knots
00:46 Flaps:5 at 182 Knots
00:46 Flaps:6 at 173 Knots
00:47 TouchDown:Rate -349 ft/min Speed: 150 Knots
00:47 VATSIM:E
VRA 170020Z 36009KT CAVOK 20/18 Q1004 NOSIG
00:47 Land
00:47 Wind:355º@009 Knots
00:47 Heading: 004º
00:47 Flight Duration: 03:02
00:47 Landing Weight: 224144 Lbs
00:47 POS N56º 55´ 15´´ E023º 58´ 14´´
00:51 Parking brakes on
00:51 Block to Block Duration: 03:17
00:51 Final Fuel: 2272 Lbls
00:51 Spent Fuel: 32255 Lbls
00:51 Flight Length: 1250 NM
00:51 TOD Land Length: 194 NM

Exportar CSV

Powered by Drupal - Modified by Danger4k